Date,TemperatureHighF,TemperatureAvgF,TemperatureLowF,DewpointHighF,DewpointAvgF,DewpointLowF,HumidityHigh,HumidityAvg,HumidityLow,PressureMaxIn,PressureMinIn,WindSpeedMaxMPH,WindSpeedAvgMPH,GustSpeedMaxMPH,PrecipitationSumIn
2013-2-1,15.7,10.5,4.7,5.5,-0.2,-6.1,73,61,51,30.35,30.00,30,9,31,0.00
2013-2-2,27.3,22.1,15.1,22.7,16.3,4.5,86,78,61,30.25,29.91,26,7,26,0.00
2013-2-3,23.6,18.5,12.1,17.4,11.3,5.2,82,73,66,30.03,29.89,22,5,22,0.00
2013-2-4,36.3,27.2,18.8,30.3,20.1,12.3,85,74,61,30.03,29.73,25,5,25,0.00
2013-2-5,35.0,28.6,21.3,29.8,23.0,18.0,88,79,69,29.95,29.75,22,5,22,0.00
2013-2-6,33.8,29.9,28.5,27.3,21.5,17.8,82,71,56,30.16,29.93,21,3,21,0.00
2013-2-7,53.0,40.3,29.8,40.8,29.3,23.8,83,66,45,30.12,29.70,6,4,20,0.05
2013-2-8,44.9,34.3,29.4,41.9,29.0,22.4,93,81,69,30.26,29.71,12,7,27,0.19
2013-2-9,38.4,30.1,22.3,23.9,21.0,19.3,88,70,50,30.34,30.16,6,2,16,0.00
2013-2-10,50.3,41.7,32.2,46.9,30.5,19.9,91,65,53,30.14,29.63,17,8,35,0.03
2013-2-11,50.7,41.1,32.8,47.4,30.6,22.1,91,67,55,29.94,29.58,19,14,37,0.00
2013-2-12,44.0,33.7,29.0,29.4,24.3,21.8,85,69,46,30.06,29.88,10,5,21,0.00
2013-2-13,43.2,33.7,26.1,27.1,24.1,22.5,88,69,47,29.88,29.70,18,3,20,0.00
2013-2-14,47.4,38.8,33.1,34.6,31.1,24.3,90,74,57,29.90,29.70,33,10,33,0.00
2013-2-15,37.8,30.8,22.5,29.2,23.8,14.9,89,75,57,30.09,29.88,21,3,21,0.01
2013-2-16,25.0,21.4,17.3,17.6,10.8,3.9,79,64,47,30.08,30.01,27,6,27,0.00
2013-2-17,30.9,21.3,11.1,11.8,8.1,3.2,81,59,33,30.17,30.07,19,3,19,0.00
2013-2-18,56.6,41.2,25.6,41.2,25.3,8.0,86,53,42,30.09,29.51,43,12,43,0.09
2013-2-19,45.4,26.5,21.1,42.1,18.6,8.3,91,72,57,30.05,29.46,41,14,41,0.11
2013-2-20,24.4,18.3,11.1,11.8,8.0,2.3,71,64,54,30.27,30.04,29,7,29,0.00
2013-2-21,29.0,24.3,18.6,22.7,16.2,10.5,83,71,62,30.28,29.97,25,6,25,0.00
2013-2-22,35.8,32.9,27.0,34.7,29.7,21.3,99,88,75,29.99,29.78,24,8,24,0.24
2013-2-23,35.6,30.0,25.6,28.2,21.3,18.4,86,70,57,29.92,29.85,22,5,22,0.03
2013-2-24,38.8,30.4,23.9,23.5,20.4,17.7,80,67,50,30.08,29.89,17,4,17,0.01
2013-2-25,44.6,34.7,25.6,26.3,23.0,19.6,79,63,46,30.10,29.84,19,5,20,0.00
2013-2-26,41.5,36.9,32.8,40.2,32.2,22.5,96,84,60,29.86,29.31,29,7,29,0.70
2013-2-27,41.5,35.1,31.0,40.0,32.3,27.9,97,89,80,29.60,29.37,26,8,26,0.09
2013-2-28,37.9,33.7,31.0,33.0,30.6,28.1,94,88,76,29.90,29.58,18,3,18,0.08